Bei Facebook empfehlenBei Twitter postenGoogle plusPinterest

Das Wetter im Erzgebirge am 29.03.2017

Wetter und Klima am 29.03.2017 Holzhau im Erzgebirge (630m ü.NN)
Letzte gemessene Temperatur und Uhrzeit der Messung23:45:00 Uhr9.60 °C
Temperatur (Maximum / Höchstwert) und Uhrzeit der Messung13:00:00 Uhr14.90 °C
Temperatur (Minimum / Tiefstwert) und Uhrzeit der Messung03:00:001.10 °C
Errechneter Absolutwert der Temperaturschwankungen zwischen Tmin und Tmax des Tages13.80 K
Errechnete Tagesmitteltemperatur8.23125 °C
Gesamt - Niederschlag des Tages (in flüssiger Form)0.00 Liter / m²
Luftdruck (Maximum / Höchstwert) und Zeitpunkt der Messung23:45:00 Uhr1020.90 hPa
Luftdruck (Minimum / Tiefstwert) und Zeitpunkt der Messung03:30:00 Uhr1018.10 hPa
Errechneter Absolutwert der Luftdruckschwankungen des Tages2.80 hPa
Höchste gemessene Windgeschwindigkeit und Uhrzeit der Messung14:15:00 Uhr15.48 km/h
Errechnete Windhäufigkeit in Relation zu den Messwerten des Tages28.12500 %
Niedrigste Windkühle (Windchill) und Zeitpunkt der Messung03:00:00 Uhr1.10 °C
Taupunkt (Maximum / Höchstwert) und Uhrzeit der Messung12:00:00 Uhr6.30 °C
Taupunkt (Minimum / Tiefstwert) und Uhrzeit der Messung02:45:00-1.00 °C
Anzahl der automatisch eingelesenen Messwerte 96

Detaillierte Wetter- und Klima- Messwerte für den 29.03.2017 in Holzhau im Erzgebirge (630m ü.NN)
ZeitTemperaturLuftdruckRel. LuftfeuchteWindWindrichtungWindchillTaupunktNiederschlag l/m²
23:45:009.60 °C1020.90 hPa76.00 %5.60 °C 
23:30:009.90 °C1020.80 hPa74.00 %5.50 °C 
23:15:009.90 °C1020.50 hPa73.00 %5.30 °C 
23:00:009.90 °C1020.50 hPa73.00 %5.30 °C 
22:45:009.90 °C1020.40 hPa72.00 %1.44 km/hNNW9.90 °C5.10 °C 
22:30:0010.10 °C1020.20 hPa72.00 %5.30 °C 
22:15:0010.10 °C1020.10 hPa72.00 %5.30 °C 
22:00:0010.10 °C1019.90 hPa73.00 %5.50 °C 
21:45:0010.10 °C1019.80 hPa73.00 %5.50 °C 
21:30:0010.10 °C1019.70 hPa74.00 %1.44 km/hW10.10 °C5.70 °C 
21:15:0010.00 °C1019.70 hPa74.00 %5.60 °C 
21:00:009.90 °C1019.70 hPa74.00 %5.50 °C 
20:45:009.90 °C1019.60 hPa74.00 %5.50 °C 
20:30:009.80 °C1019.30 hPa74.00 %5.40 °C 
20:15:009.80 °C1019.20 hPa74.00 %5.40 °C 
20:00:0010.00 °C1019.00 hPa72.00 %5.20 °C 
19:45:0010.30 °C1018.70 hPa71.00 %5.30 °C 
19:30:0010.50 °C1018.60 hPa69.00 %5.10 °C 
19:15:0010.80 °C1018.60 hPa69.00 %5.30 °C 
19:00:0011.10 °C1018.50 hPa67.00 %5.20 °C 
18:45:0011.60 °C1018.40 hPa65.00 %5.30 °C 
18:30:0011.90 °C1018.30 hPa65.00 %5.50 °C 
18:15:0012.10 °C1018.20 hPa64.00 %5.50 °C 
18:00:0012.30 °C1018.30 hPa64.00 %6.48 km/hNW12.00 °C5.70 °C 
17:45:0012.40 °C1018.20 hPa62.00 %5.30 °C 
17:30:0012.80 °C1018.30 hPa61.00 %5.50 °C 
17:15:0012.90 °C1018.30 hPa60.00 %5.30 °C 
17:00:0013.10 °C1018.50 hPa60.00 %5.50 °C 
16:45:0013.30 °C1018.50 hPa60.00 %7.56 km/hWNW13.00 °C5.70 °C 
16:30:0013.10 °C1018.40 hPa60.00 %1.80 km/hW13.10 °C5.50 °C 
16:15:0012.90 °C1018.60 hPa60.00 %5.76 km/hNO12.90 °C5.30 °C 
16:00:0013.10 °C1018.60 hPa58.00 %5.00 °C 
15:45:0013.60 °C1018.90 hPa57.00 %5.30 °C 
15:30:0013.40 °C1018.70 hPa58.00 %5.30 °C 
15:15:0013.10 °C1019.10 hPa58.00 %5.00 °C 
15:00:0013.40 °C1018.90 hPa57.00 %5.40 km/hWSW13.50 °C5.10 °C 
14:45:0013.30 °C1019.20 hPa56.00 %0.72 km/hW13.30 °C4.70 °C 
14:30:0013.60 °C1019.00 hPa58.00 %6.48 km/hW13.50 °C5.50 °C 
14:15:0013.30 °C1019.30 hPa56.00 %15.48 km/hWNW11.90 °C4.70 °C 
14:00:0013.90 °C1019.30 hPa55.00 %3.60 km/hWNW13.90 °C5.00 °C 
13:45:0013.30 °C1019.40 hPa60.00 %5.70 °C 
13:30:0013.20 °C1019.50 hPa58.00 %5.10 °C 
13:15:0013.90 °C1019.50 hPa55.00 %4.68 km/hW13.90 °C5.00 °C 
13:00:0014.90 °C1019.40 hPa53.00 %9.00 km/hWNW14.60 °C5.40 °C 
12:45:0014.60 °C1019.40 hPa57.00 %1.08 km/hNNW14.60 °C6.20 °C 
12:30:0013.80 °C1019.60 hPa56.00 %11.88 km/hNW12.90 °C5.20 °C 
12:15:0014.40 °C1019.70 hPa57.00 %9.36 km/hSSW14.00 °C6.00 °C 
12:00:0013.40 °C1019.80 hPa62.00 %5.40 km/hWSW13.50 °C6.30 °C 
11:45:0012.90 °C1019.60 hPa62.00 %12.60 km/hWNW11.80 °C5.80 °C 
11:30:0012.80 °C1019.80 hPa62.00 %5.70 °C 
11:15:0012.60 °C1019.70 hPa61.00 %7.56 km/hNNO12.10 °C5.30 °C 
11:00:0012.40 °C1019.50 hPa65.00 %5.40 km/hNNW12.40 °C6.00 °C 
10:45:0012.10 °C1019.50 hPa64.00 %2.88 km/hW12.10 °C5.50 °C 
10:30:0012.20 °C1019.60 hPa67.00 %4.32 km/hW12.20 °C6.30 °C 
10:15:0011.50 °C1019.60 hPa69.00 %3.96 km/hWSW11.50 °C6.00 °C 
10:00:0011.10 °C1019.50 hPa70.00 %5.40 km/hWNW10.90 °C5.80 °C 
09:45:0010.50 °C1019.50 hPa72.00 %9.36 km/hNW9.30 °C5.70 °C 
09:30:0010.10 °C1019.50 hPa74.00 %5.70 °C 
09:15:009.60 °C1019.50 hPa78.00 %2.52 km/hWSW9.60 °C6.00 °C 
09:00:008.50 °C1019.30 hPa83.00 %5.80 °C 
08:45:007.40 °C1019.30 hPa87.00 %5.40 °C 
08:30:005.20 °C1019.20 hPa89.00 %3.50 °C 
08:15:004.30 °C1018.90 hPa90.00 %2.80 °C 
08:00:003.40 °C1018.90 hPa90.00 %1.90 °C 
07:45:002.90 °C1018.80 hPa90.00 %1.40 °C 
07:30:002.50 °C1018.70 hPa90.00 %1.00 °C 
07:15:001.90 °C1018.60 hPa90.00 %0.40 °C 
07:00:001.90 °C1018.70 hPa89.00 %0.30 °C 
06:45:002.40 °C1018.60 hPa89.00 %0.80 °C 
06:30:002.60 °C1018.60 hPa89.00 %1.00 °C 
06:15:002.60 °C1018.50 hPa90.00 %1.10 °C 
06:00:002.70 °C1018.50 hPa89.00 %0.72 km/hSO2.70 °C1.10 °C 
05:45:002.90 °C1018.60 hPa90.00 %1.40 °C 
05:30:002.40 °C1018.60 hPa90.00 %0.90 °C 
05:15:002.10 °C1018.50 hPa90.00 %0.60 °C 
05:00:001.90 °C1018.40 hPa89.00 %0.30 °C 
04:45:001.80 °C1018.50 hPa89.00 %0.20 °C 
04:30:001.90 °C1018.30 hPa89.00 %0.30 °C 
04:15:001.90 °C1018.50 hPa89.00 %0.30 °C 
04:00:001.80 °C1018.30 hPa89.00 %0.20 °C 
03:45:001.30 °C1018.20 hPa88.00 %-0.50 °C 
03:30:001.20 °C1018.10 hPa87.00 %-0.70 °C 
03:15:001.30 °C1018.20 hPa87.00 %-0.60 °C 
03:00:001.10 °C1018.40 hPa87.00 %-0.80 °C 
02:45:001.10 °C1018.50 hPa86.00 %-1.00 °C 
02:30:001.20 °C1018.50 hPa86.00 %-0.90 °C 
02:15:001.30 °C1018.40 hPa85.00 %-0.90 °C 
02:00:001.60 °C1018.40 hPa85.00 %-0.60 °C 
01:45:001.80 °C1018.50 hPa85.00 %-0.40 °C 
01:30:001.80 °C1018.40 hPa85.00 %-0.40 °C 
01:15:001.80 °C1018.50 hPa84.00 %-0.60 °C 
01:00:001.80 °C1018.60 hPa84.00 %-0.60 °C 
00:45:001.90 °C1018.60 hPa84.00 %-0.50 °C 
00:30:001.90 °C1018.50 hPa84.00 %-0.50 °C 
00:15:001.80 °C1018.50 hPa83.00 %-0.80 °C 
00:00:002.10 °C1018.30 hPa82.00 %-0.60 °C 

Permanenter Link zu dieser Seite: Wetter im Erzgebirge am 29.03.2017
Performance-Info: Die Erstellung der Seite / Statistik(en) / Tabelle(n) erforderte 5 Datenbankserver-Abfrage(n) und dauerte 86 Millisekunden. (Dieser Messwert ist von der Gesamt-Auslastung des Servers abhängig.)
Erzgebirge - Wetter | Erzgebirge - Wetter (Mobilgeräte) | Komplette Klimadatenbank